< < Back
Terminal Aerodrome Forecast


Current Version              Previous Versions:   1  2  3  4  5  6  7  8  9  

Terminal Aerodrome Forecast

458
FTUS42 KGSP 182300
TAFAND
TAF
KAND 182334Z 1900/1924 08004KT P6SM OVC080
     FM190700 05003KT 5SM BR BKN045
     FM190800 04003KT 5SM BR BKN015
     FM191400 09007KT P6SM BKN025
     FM192000 09007KT P6SM BKN035=



Latest METAR

242
SAUS70 KWBC 191400 RRC
MTRAND
METAR KAND 191356Z AUTO 06010KT 8SM SCT015 OVC100 20/19 A3014 RMK AO2
RAE05B29E49 SLP199 P0001 T02000189


USA.gov is the U.S. government's official web portal to all federal, state and local government web resources and services.